EKRK

Copenhagen Roskilde Airport

Copenhagen, Denmark
METAR EKRK 251450Z AUTO 27007KT 240V300 9999NDV FEW042/// 12/04 Q1034
Observed Flight Rules
Sep-25 @ 14:50 UTC (15 minutes ago)
Wind Clouds
270° at 7 knots
  • Few at 4,200' AGL
Temperatures Readings
Current 12°C / 54°F
Dewpoint 4°C / 39°F
Humidity 58%
Altimeter 30.53" Hg
Pressure 1034 hPa
Elevation 44
METAR EKRK 251450Z AUTO 27007KT 240V300 9999NDV FEW042/// 12/04 Q1034
Observed Flight Rules
Sep-25 @ 14:50 UTC
(15 minutes ago)
Wind
270° at 7 knots
Clouds
  • Few at 4,200' AGL
Temperature Dewpoint
12°C / 54°F 4°C / 39°F
Humidity Altimeter Pressure
58% 30.53" Hg 1034 hPa